sensor_id;sensor_type;location;lat;lon;timestamp;P1;durP1;ratioP1;P2;durP2;ratioP2
20653;SDS011;21083;50.898;4.902;2023-07-20T00:00:26;7.97;;;2.83;;
20653;SDS011;21083;50.898;4.902;2023-07-20T00:02:56;10.38;;;2.78;;
20653;SDS011;21083;50.898;4.902;2023-07-20T00:05:37;10.10;;;2.95;;
20653;SDS011;21083;50.898;4.902;2023-07-20T00:08:05;7.30;;;2.55;;
20653;SDS011;21083;50.898;4.902;2023-07-20T00:10:33;9.48;;;2.75;;
20653;SDS011;21083;50.898;4.902;2023-07-20T00:13:00;8.00;;;2.85;;
20653;SDS011;21083;50.898;4.902;2023-07-20T00:15:27;12.82;;;2.83;;
20653;SDS011;21083;50.898;4.902;2023-07-20T00:17:53;11.75;;;2.85;;
20653;SDS011;21083;50.898;4.902;2023-07-20T00:20:21;9.63;;;2.40;;
20653;SDS011;21083;50.898;4.902;2023-07-20T00:22:50;12.25;;;3.42;;
20653;SDS011;21083;50.898;4.902;2023-07-20T00:25:17;7.90;;;2.90;;
20653;SDS011;21083;50.898;4.902;2023-07-20T00:27:45;9.57;;;2.90;;
20653;SDS011;21083;50.898;4.902;2023-07-20T00:30:12;9.05;;;2.60;;
20653;SDS011;21083;50.898;4.902;2023-07-20T00:32:40;11.95;;;2.83;;
20653;SDS011;21083;50.898;4.902;2023-07-20T00:35:08;12.95;;;3.00;;
20653;SDS011;21083;50.898;4.902;2023-07-20T00:37:36;7.90;;;2.97;;
20653;SDS011;21083;50.898;4.902;2023-07-20T00:40:03;10.30;;;2.92;;
20653;SDS011;21083;50.898;4.902;2023-07-20T00:42:32;10.93;;;2.88;;
20653;SDS011;21083;50.898;4.902;2023-07-20T00:45:01;10.52;;;2.42;;
20653;SDS011;21083;50.898;4.902;2023-07-20T00:47:28;8.18;;;2.65;;
20653;SDS011;21083;50.898;4.902;2023-07-20T00:49:55;11.80;;;2.90;;
20653;SDS011;21083;50.898;4.902;2023-07-20T00:52:22;15.35;;;3.60;;
20653;SDS011;21083;50.898;4.902;2023-07-20T00:54:50;9.90;;;2.65;;
20653;SDS011;21083;50.898;4.902;2023-07-20T00:57:21;9.65;;;2.95;;
20653;SDS011;21083;50.898;4.902;2023-07-20T00:59:50;11.40;;;3.08;;
20653;SDS011;21083;50.898;4.902;2023-07-20T01:02:18;9.55;;;3.00;;
20653;SDS011;21083;50.898;4.902;2023-07-20T01:04:45;9.80;;;3.45;;
20653;SDS011;21083;50.898;4.902;2023-07-20T01:07:14;13.88;;;3.28;;
20653;SDS011;21083;50.898;4.902;2023-07-20T01:09:59;13.23;;;2.90;;
20653;SDS011;21083;50.898;4.902;2023-07-20T01:12:30;10.98;;;3.17;;
20653;SDS011;21083;50.898;4.902;2023-07-20T01:15:02;8.38;;;3.10;;
20653;SDS011;21083;50.898;4.902;2023-07-20T01:17:34;10.05;;;2.83;;
20653;SDS011;21083;50.898;4.902;2023-07-20T01:20:01;11.25;;;3.47;;
20653;SDS011;21083;50.898;4.902;2023-07-20T01:22:33;13.80;;;3.53;;
20653;SDS011;21083;50.898;4.902;2023-07-20T01:25:21;11.50;;;3.70;;
20653;SDS011;21083;50.898;4.902;2023-07-20T01:30:59;8.70;;;2.80;;
20653;SDS011;21083;50.898;4.902;2023-07-20T01:33:48;14.93;;;4.00;;
20653;SDS011;21083;50.898;4.902;2023-07-20T01:36:18;12.40;;;3.00;;
20653;SDS011;21083;50.898;4.902;2023-07-20T01:38:46;11.23;;;3.35;;
20653;SDS011;21083;50.898;4.902;2023-07-20T01:41:13;13.10;;;3.30;;
20653;SDS011;21083;50.898;4.902;2023-07-20T01:43:42;12.88;;;3.75;;
20653;SDS011;21083;50.898;4.902;2023-07-20T01:46:09;10.02;;;2.92;;
20653;SDS011;21083;50.898;4.902;2023-07-20T01:48:37;11.77;;;3.30;;
20653;SDS011;21083;50.898;4.902;2023-07-20T01:51:04;8.95;;;3.28;;
20653;SDS011;21083;50.898;4.902;2023-07-20T01:53:31;13.77;;;3.38;;
20653;SDS011;21083;50.898;4.902;2023-07-20T01:55:58;15.45;;;3.50;;
20653;SDS011;21083;50.898;4.902;2023-07-20T01:58:25;13.45;;;4.20;;
20653;SDS011;21083;50.898;4.902;2023-07-20T02:00:52;16.02;;;4.10;;
20653;SDS011;21083;50.898;4.902;2023-07-20T02:03:19;14.57;;;3.33;;
20653;SDS011;21083;50.898;4.902;2023-07-20T02:05:50;13.15;;;3.65;;
20653;SDS011;21083;50.898;4.902;2023-07-20T02:08:17;12.30;;;3.88;;
20653;SDS011;21083;50.898;4.902;2023-07-20T02:10:45;16.15;;;3.80;;
20653;SDS011;21083;50.898;4.902;2023-07-20T02:13:12;12.43;;;3.58;;
20653;SDS011;21083;50.898;4.902;2023-07-20T02:15:39;17.88;;;4.53;;
20653;SDS011;21083;50.898;4.902;2023-07-20T02:18:06;15.93;;;4.60;;
20653;SDS011;21083;50.898;4.902;2023-07-20T02:20:33;18.00;;;4.15;;
20653;SDS011;21083;50.898;4.902;2023-07-20T02:23:01;13.85;;;4.03;;
20653;SDS011;21083;50.898;4.902;2023-07-20T02:25:28;11.88;;;3.85;;
20653;SDS011;21083;50.898;4.902;2023-07-20T02:27:56;11.65;;;4.70;;
20653;SDS011;21083;50.898;4.902;2023-07-20T02:30:23;13.98;;;4.03;;
20653;SDS011;21083;50.898;4.902;2023-07-20T02:32:50;13.50;;;4.05;;
20653;SDS011;21083;50.898;4.902;2023-07-20T02:35:17;19.63;;;4.45;;
20653;SDS011;21083;50.898;4.902;2023-07-20T02:37:44;10.13;;;3.88;;
20653;SDS011;21083;50.898;4.902;2023-07-20T02:40:12;16.52;;;4.00;;
20653;SDS011;21083;50.898;4.902;2023-07-20T02:42:39;14.43;;;4.10;;
20653;SDS011;21083;50.898;4.902;2023-07-20T02:45:06;10.88;;;3.63;;
20653;SDS011;21083;50.898;4.902;2023-07-20T02:47:34;14.32;;;4.25;;
20653;SDS011;21083;50.898;4.902;2023-07-20T02:50:01;10.23;;;3.63;;
20653;SDS011;21083;50.898;4.902;2023-07-20T02:52:28;15.65;;;3.90;;
20653;SDS011;21083;50.898;4.902;2023-07-20T02:54:55;12.23;;;4.25;;
20653;SDS011;21083;50.898;4.902;2023-07-20T02:57:23;11.52;;;3.80;;
20653;SDS011;21083;50.898;4.902;2023-07-20T02:59:50;11.68;;;3.50;;
20653;SDS011;21083;50.898;4.902;2023-07-20T03:02:17;17.02;;;4.60;;
20653;SDS011;21083;50.898;4.902;2023-07-20T03:04:44;17.98;;;4.53;;
20653;SDS011;21083;50.898;4.902;2023-07-20T03:07:11;28.67;;;5.03;;
20653;SDS011;21083;50.898;4.902;2023-07-20T03:09:38;15.10;;;4.45;;
20653;SDS011;21083;50.898;4.902;2023-07-20T03:12:06;17.27;;;4.43;;
20653;SDS011;21083;50.898;4.902;2023-07-20T03:14:35;14.45;;;4.65;;
20653;SDS011;21083;50.898;4.902;2023-07-20T03:17:02;16.98;;;4.57;;
20653;SDS011;21083;50.898;4.902;2023-07-20T03:19:29;18.17;;;5.40;;
20653;SDS011;21083;50.898;4.902;2023-07-20T03:21:56;13.45;;;5.32;;
20653;SDS011;21083;50.898;4.902;2023-07-20T03:24:23;17.73;;;6.00;;
20653;SDS011;21083;50.898;4.902;2023-07-20T03:26:50;19.55;;;5.63;;
20653;SDS011;21083;50.898;4.902;2023-07-20T03:29:17;20.63;;;7.03;;
20653;SDS011;21083;50.898;4.902;2023-07-20T03:31:46;18.15;;;6.68;;
20653;SDS011;21083;50.898;4.902;2023-07-20T03:34:13;19.35;;;6.55;;
20653;SDS011;21083;50.898;4.902;2023-07-20T03:36:40;20.17;;;6.72;;
20653;SDS011;21083;50.898;4.902;2023-07-20T03:39:07;19.10;;;6.65;;
20653;SDS011;21083;50.898;4.902;2023-07-20T03:41:33;20.02;;;6.65;;
20653;SDS011;21083;50.898;4.902;2023-07-20T03:44:02;19.15;;;6.22;;
20653;SDS011;21083;50.898;4.902;2023-07-20T03:46:29;16.00;;;7.05;;
20653;SDS011;21083;50.898;4.902;2023-07-20T03:48:57;15.20;;;6.93;;
20653;SDS011;21083;50.898;4.902;2023-07-20T03:51:24;17.23;;;7.18;;
20653;SDS011;21083;50.898;4.902;2023-07-20T03:53:52;21.98;;;7.82;;
20653;SDS011;21083;50.898;4.902;2023-07-20T03:56:19;23.67;;;7.50;;
20653;SDS011;21083;50.898;4.902;2023-07-20T03:58:45;17.90;;;7.25;;
20653;SDS011;21083;50.898;4.902;2023-07-20T04:01:12;20.08;;;8.25;;
20653;SDS011;21083;50.898;4.902;2023-07-20T04:03:41;18.58;;;7.45;;
20653;SDS011;21083;50.898;4.902;2023-07-20T04:06:10;21.13;;;7.97;;
20653;SDS011;21083;50.898;4.902;2023-07-20T04:08:37;20.13;;;7.50;;
20653;SDS011;21083;50.898;4.902;2023-07-20T04:11:04;26.02;;;8.77;;
20653;SDS011;21083;50.898;4.902;2023-07-20T04:13:31;24.27;;;8.77;;
20653;SDS011;21083;50.898;4.902;2023-07-20T04:15:59;25.30;;;8.90;;
20653;SDS011;21083;50.898;4.902;2023-07-20T04:18:27;19.13;;;8.68;;
20653;SDS011;21083;50.898;4.902;2023-07-20T04:20:54;21.48;;;8.90;;
20653;SDS011;21083;50.898;4.902;2023-07-20T04:23:22;28.45;;;10.38;;
20653;SDS011;21083;50.898;4.902;2023-07-20T04:25:50;20.33;;;7.57;;
20653;SDS011;21083;50.898;4.902;2023-07-20T04:28:17;22.13;;;9.23;;
20653;SDS011;21083;50.898;4.902;2023-07-20T04:30:44;21.85;;;9.48;;
20653;SDS011;21083;50.898;4.902;2023-07-20T04:33:11;20.02;;;9.18;;
20653;SDS011;21083;50.898;4.902;2023-07-20T04:35:45;19.40;;;9.07;;
20653;SDS011;21083;50.898;4.902;2023-07-20T04:38:16;26.13;;;9.02;;
20653;SDS011;21083;50.898;4.902;2023-07-20T04:40:45;29.77;;;10.35;;
20653;SDS011;21083;50.898;4.902;2023-07-20T04:43:12;26.52;;;9.82;;
20653;SDS011;21083;50.898;4.902;2023-07-20T04:45:39;23.20;;;8.45;;
20653;SDS011;21083;50.898;4.902;2023-07-20T04:48:08;21.95;;;9.10;;
20653;SDS011;21083;50.898;4.902;2023-07-20T04:50:37;23.58;;;9.60;;
20653;SDS011;21083;50.898;4.902;2023-07-20T04:53:04;24.45;;;8.98;;
20653;SDS011;21083;50.898;4.902;2023-07-20T04:55:31;27.38;;;9.38;;
20653;SDS011;21083;50.898;4.902;2023-07-20T04:58:01;25.35;;;9.30;;
20653;SDS011;21083;50.898;4.902;2023-07-20T05:00:28;20.13;;;9.82;;
20653;SDS011;21083;50.898;4.902;2023-07-20T05:02:55;20.33;;;9.10;;
20653;SDS011;21083;50.898;4.902;2023-07-20T05:05:23;23.88;;;10.98;;
20653;SDS011;21083;50.898;4.902;2023-07-20T05:07:49;23.58;;;10.32;;
20653;SDS011;21083;50.898;4.902;2023-07-20T05:10:17;22.55;;;10.13;;
20653;SDS011;21083;50.898;4.902;2023-07-20T05:12:43;28.95;;;8.85;;
20653;SDS011;21083;50.898;4.902;2023-07-20T05:15:12;17.13;;;8.73;;
20653;SDS011;21083;50.898;4.902;2023-07-20T05:17:39;24.75;;;9.60;;
20653;SDS011;21083;50.898;4.902;2023-07-20T05:20:06;28.25;;;9.73;;
20653;SDS011;21083;50.898;4.902;2023-07-20T05:22:34;22.67;;;9.98;;
20653;SDS011;21083;50.898;4.902;2023-07-20T05:25:02;19.92;;;9.60;;
20653;SDS011;21083;50.898;4.902;2023-07-20T05:27:29;20.35;;;10.23;;
20653;SDS011;21083;50.898;4.902;2023-07-20T05:29:56;22.25;;;10.27;;
20653;SDS011;21083;50.898;4.902;2023-07-20T05:32:25;24.65;;;10.57;;
20653;SDS011;21083;50.898;4.902;2023-07-20T05:34:52;23.05;;;10.18;;
20653;SDS011;21083;50.898;4.902;2023-07-20T05:37:19;24.23;;;9.38;;
20653;SDS011;21083;50.898;4.902;2023-07-20T05:39:46;19.50;;;10.60;;
20653;SDS011;21083;50.898;4.902;2023-07-20T05:42:13;20.73;;;10.50;;
20653;SDS011;21083;50.898;4.902;2023-07-20T05:44:40;21.75;;;11.20;;
20653;SDS011;21083;50.898;4.902;2023-07-20T05:47:07;27.23;;;11.32;;
20653;SDS011;21083;50.898;4.902;2023-07-20T05:49:36;24.48;;;13.07;;
20653;SDS011;21083;50.898;4.902;2023-07-20T05:52:03;26.50;;;13.10;;
20653;SDS011;21083;50.898;4.902;2023-07-20T05:54:30;24.35;;;13.02;;
20653;SDS011;21083;50.898;4.902;2023-07-20T05:56:57;24.45;;;13.32;;
20653;SDS011;21083;50.898;4.902;2023-07-20T05:59:24;27.33;;;13.05;;
20653;SDS011;21083;50.898;4.902;2023-07-20T06:01:51;28.13;;;12.20;;
20653;SDS011;21083;50.898;4.902;2023-07-20T06:04:18;26.92;;;13.50;;
20653;SDS011;21083;50.898;4.902;2023-07-20T06:06:46;26.70;;;13.57;;
20653;SDS011;21083;50.898;4.902;2023-07-20T06:09:13;31.23;;;13.93;;
20653;SDS011;21083;50.898;4.902;2023-07-20T06:11:40;21.08;;;12.13;;
20653;SDS011;21083;50.898;4.902;2023-07-20T06:14:07;26.42;;;13.48;;
20653;SDS011;21083;50.898;4.902;2023-07-20T06:16:33;22.95;;;12.82;;
20653;SDS011;21083;50.898;4.902;2023-07-20T06:19:00;28.42;;;14.68;;
20653;SDS011;21083;50.898;4.902;2023-07-20T06:21:27;24.88;;;14.05;;
20653;SDS011;21083;50.898;4.902;2023-07-20T06:23:55;23.13;;;13.18;;
20653;SDS011;21083;50.898;4.902;2023-07-20T06:26:23;30.48;;;21.48;;
20653;SDS011;21083;50.898;4.902;2023-07-20T06:28:50;23.38;;;13.75;;
20653;SDS011;21083;50.898;4.902;2023-07-20T06:31:17;28.85;;;13.50;;
20653;SDS011;21083;50.898;4.902;2023-07-20T06:33:44;27.27;;;13.25;;
20653;SDS011;21083;50.898;4.902;2023-07-20T06:36:11;23.30;;;12.73;;
20653;SDS011;21083;50.898;4.902;2023-07-20T06:38:38;22.65;;;13.40;;
20653;SDS011;21083;50.898;4.902;2023-07-20T06:41:06;20.98;;;13.30;;
20653;SDS011;21083;50.898;4.902;2023-07-20T06:43:33;19.88;;;11.55;;
20653;SDS011;21083;50.898;4.902;2023-07-20T06:46:00;20.25;;;11.85;;
20653;SDS011;21083;50.898;4.902;2023-07-20T06:48:27;23.48;;;12.73;;
20653;SDS011;21083;50.898;4.902;2023-07-20T06:50:54;20.05;;;11.60;;
20653;SDS011;21083;50.898;4.902;2023-07-20T06:53:21;21.65;;;12.35;;
20653;SDS011;21083;50.898;4.902;2023-07-20T06:55:48;22.75;;;12.73;;
20653;SDS011;21083;50.898;4.902;2023-07-20T06:58:16;23.10;;;12.27;;
20653;SDS011;21083;50.898;4.902;2023-07-20T07:00:44;27.95;;;13.27;;
20653;SDS011;21083;50.898;4.902;2023-07-20T07:03:11;23.13;;;12.32;;
20653;SDS011;21083;50.898;4.902;2023-07-20T07:05:38;24.35;;;12.38;;
20653;SDS011;21083;50.898;4.902;2023-07-20T07:08:05;24.38;;;12.55;;
20653;SDS011;21083;50.898;4.902;2023-07-20T07:10:32;21.52;;;11.25;;
20653;SDS011;21083;50.898;4.902;2023-07-20T07:13:01;21.13;;;11.30;;
20653;SDS011;21083;50.898;4.902;2023-07-20T07:15:30;21.17;;;11.88;;
20653;SDS011;21083;50.898;4.902;2023-07-20T07:17:57;19.95;;;11.82;;
20653;SDS011;21083;50.898;4.902;2023-07-20T07:20:24;18.85;;;10.80;;
20653;SDS011;21083;50.898;4.902;2023-07-20T07:22:51;20.67;;;12.77;;
20653;SDS011;21083;50.898;4.902;2023-07-20T07:25:18;20.17;;;11.98;;
20653;SDS011;21083;50.898;4.902;2023-07-20T07:27:45;16.25;;;10.60;;
20653;SDS011;21083;50.898;4.902;2023-07-20T07:30:12;16.77;;;10.13;;
20653;SDS011;21083;50.898;4.902;2023-07-20T07:32:41;17.77;;;11.02;;
20653;SDS011;21083;50.898;4.902;2023-07-20T07:35:08;19.70;;;11.18;;
20653;SDS011;21083;50.898;4.902;2023-07-20T07:37:35;18.33;;;9.50;;
20653;SDS011;21083;50.898;4.902;2023-07-20T07:40:03;16.70;;;9.75;;
20653;SDS011;21083;50.898;4.902;2023-07-20T07:42:31;16.13;;;8.85;;
20653;SDS011;21083;50.898;4.902;2023-07-20T07:44:58;19.85;;;10.82;;
20653;SDS011;21083;50.898;4.902;2023-07-20T07:47:24;19.83;;;11.10;;
20653;SDS011;21083;50.898;4.902;2023-07-20T07:49:53;18.90;;;11.35;;
20653;SDS011;21083;50.898;4.902;2023-07-20T07:52:19;16.10;;;8.40;;
20653;SDS011;21083;50.898;4.902;2023-07-20T07:54:47;15.68;;;8.70;;
20653;SDS011;21083;50.898;4.902;2023-07-20T07:57:14;19.67;;;8.23;;
20653;SDS011;21083;50.898;4.902;2023-07-20T07:59:41;22.95;;;10.23;;
20653;SDS011;21083;50.898;4.902;2023-07-20T08:02:07;20.35;;;9.88;;
20653;SDS011;21083;50.898;4.902;2023-07-20T08:04:35;15.77;;;8.75;;
20653;SDS011;21083;50.898;4.902;2023-07-20T08:07:03;12.27;;;8.07;;
20653;SDS011;21083;50.898;4.902;2023-07-20T08:09:30;15.02;;;8.70;;
20653;SDS011;21083;50.898;4.902;2023-07-20T08:11:57;15.75;;;8.23;;
20653;SDS011;21083;50.898;4.902;2023-07-20T08:14:24;13.55;;;7.70;;
20653;SDS011;21083;50.898;4.902;2023-07-20T08:16:53;14.98;;;8.20;;
20653;SDS011;21083;50.898;4.902;2023-07-20T08:19:20;15.30;;;7.70;;
20653;SDS011;21083;50.898;4.902;2023-07-20T08:21:47;17.23;;;7.22;;
20653;SDS011;21083;50.898;4.902;2023-07-20T08:24:15;13.57;;;7.22;;
20653;SDS011;21083;50.898;4.902;2023-07-20T08:26:42;12.10;;;6.78;;
20653;SDS011;21083;50.898;4.902;2023-07-20T08:29:09;13.63;;;6.93;;
20653;SDS011;21083;50.898;4.902;2023-07-20T08:31:35;15.77;;;7.20;;
20653;SDS011;21083;50.898;4.902;2023-07-20T08:34:02;13.32;;;6.25;;
20653;SDS011;21083;50.898;4.902;2023-07-20T08:36:29;15.05;;;6.35;;
20653;SDS011;21083;50.898;4.902;2023-07-20T08:38:57;13.98;;;5.15;;
20653;SDS011;21083;50.898;4.902;2023-07-20T08:41:26;9.68;;;5.25;;
20653;SDS011;21083;50.898;4.902;2023-07-20T08:43:53;12.40;;;5.35;;
20653;SDS011;21083;50.898;4.902;2023-07-20T08:46:23;13.98;;;5.38;;
20653;SDS011;21083;50.898;4.902;2023-07-20T08:48:50;11.50;;;5.25;;
20653;SDS011;21083;50.898;4.902;2023-07-20T08:51:18;11.10;;;3.90;;
20653;SDS011;21083;50.898;4.902;2023-07-20T08:53:47;10.30;;;4.80;;
20653;SDS011;21083;50.898;4.902;2023-07-20T08:56:17;12.13;;;5.00;;
20653;SDS011;21083;50.898;4.902;2023-07-20T08:58:47;10.13;;;4.53;;
20653;SDS011;21083;50.898;4.902;2023-07-20T09:01:14;9.02;;;4.72;;
20653;SDS011;21083;50.898;4.902;2023-07-20T09:03:41;11.75;;;4.35;;
20653;SDS011;21083;50.898;4.902;2023-07-20T09:06:11;12.25;;;4.78;;
20653;SDS011;21083;50.898;4.902;2023-07-20T09:08:38;7.10;;;3.78;;
20653;SDS011;21083;50.898;4.902;2023-07-20T09:11:06;9.70;;;4.70;;
20653;SDS011;21083;50.898;4.902;2023-07-20T09:13:33;14.88;;;4.63;;
20653;SDS011;21083;50.898;4.902;2023-07-20T09:16:02;8.05;;;3.88;;
20653;SDS011;21083;50.898;4.902;2023-07-20T09:18:30;11.02;;;4.40;;
20653;SDS011;21083;50.898;4.902;2023-07-20T09:20:58;7.18;;;3.97;;
20653;SDS011;21083;50.898;4.902;2023-07-20T09:23:30;7.57;;;3.88;;
20653;SDS011;21083;50.898;4.902;2023-07-20T09:25:58;10.05;;;3.83;;
20653;SDS011;21083;50.898;4.902;2023-07-20T09:28:25;9.27;;;4.28;;
20653;SDS011;21083;50.898;4.902;2023-07-20T09:30:53;8.50;;;4.60;;
20653;SDS011;21083;50.898;4.902;2023-07-20T09:33:23;10.93;;;4.63;;
20653;SDS011;21083;50.898;4.902;2023-07-20T09:35:50;9.55;;;4.15;;
20653;SDS011;21083;50.898;4.902;2023-07-20T09:38:17;7.78;;;3.92;;
20653;SDS011;21083;50.898;4.902;2023-07-20T09:40:45;10.20;;;4.55;;
20653;SDS011;21083;50.898;4.902;2023-07-20T09:43:12;6.68;;;3.38;;
20653;SDS011;21083;50.898;4.902;2023-07-20T09:45:42;7.75;;;3.08;;
20653;SDS011;21083;50.898;4.902;2023-07-20T09:48:10;7.07;;;3.05;;
20653;SDS011;21083;50.898;4.902;2023-07-20T09:50:42;7.07;;;3.70;;
20653;SDS011;21083;50.898;4.902;2023-07-20T09:53:14;11.02;;;3.75;;
20653;SDS011;21083;50.898;4.902;2023-07-20T09:55:44;9.00;;;3.90;;
20653;SDS011;21083;50.898;4.902;2023-07-20T09:58:11;8.25;;;3.33;;
20653;SDS011;21083;50.898;4.902;2023-07-20T10:00:39;7.45;;;3.08;;
20653;SDS011;21083;50.898;4.902;2023-07-20T10:03:08;7.80;;;3.33;;
20653;SDS011;21083;50.898;4.902;2023-07-20T10:05:39;7.78;;;3.53;;
20653;SDS011;21083;50.898;4.902;2023-07-20T10:08:14;6.50;;;2.80;;
20653;SDS011;21083;50.898;4.902;2023-07-20T10:10:43;7.03;;;3.25;;
20653;SDS011;21083;50.898;4.902;2023-07-20T10:13:13;6.88;;;3.53;;
20653;SDS011;21083;50.898;4.902;2023-07-20T10:15:46;7.32;;;3.42;;
20653;SDS011;21083;50.898;4.902;2023-07-20T10:18:17;6.45;;;2.80;;
20653;SDS011;21083;50.898;4.902;2023-07-20T10:20:50;5.18;;;2.35;;
20653;SDS011;21083;50.898;4.902;2023-07-20T10:23:20;5.63;;;2.60;;
20653;SDS011;21083;50.898;4.902;2023-07-20T10:25:47;6.47;;;2.70;;
20653;SDS011;21083;50.898;4.902;2023-07-20T10:28:16;4.70;;;2.15;;
20653;SDS011;21083;50.898;4.902;2023-07-20T10:30:43;7.00;;;2.80;;
20653;SDS011;21083;50.898;4.902;2023-07-20T10:33:10;5.38;;;2.47;;
20653;SDS011;21083;50.898;4.902;2023-07-20T10:35:54;7.72;;;2.72;;
20653;SDS011;21083;50.898;4.902;2023-07-20T10:41:05;7.43;;;2.20;;
20653;SDS011;21083;50.898;4.902;2023-07-20T10:43:42;5.40;;;2.25;;
20653;SDS011;21083;50.898;4.902;2023-07-20T10:46:10;5.50;;;2.00;;
20653;SDS011;21083;50.898;4.902;2023-07-20T10:48:58;7.35;;;2.40;;
20653;SDS011;21083;50.898;4.902;2023-07-20T10:51:28;6.00;;;2.25;;
20653;SDS011;21083;50.898;4.902;2023-07-20T10:53:55;5.13;;;2.00;;
20653;SDS011;21083;50.898;4.902;2023-07-20T10:56:25;4.72;;;2.30;;
20653;SDS011;21083;50.898;4.902;2023-07-20T10:58:57;4.25;;;2.00;;
20653;SDS011;21083;50.898;4.902;2023-07-20T11:01:27;6.53;;;2.53;;
20653;SDS011;21083;50.898;4.902;2023-07-20T11:03:57;6.03;;;2.65;;
20653;SDS011;21083;50.898;4.902;2023-07-20T11:06:31;5.90;;;2.42;;
20653;SDS011;21083;50.898;4.902;2023-07-20T11:09:03;5.53;;;2.50;;
20653;SDS011;21083;50.898;4.902;2023-07-20T11:11:33;6.20;;;2.60;;
20653;SDS011;21083;50.898;4.902;2023-07-20T11:14:01;5.72;;;2.03;;
20653;SDS011;21083;50.898;4.902;2023-07-20T11:16:33;6.63;;;2.20;;
20653;SDS011;21083;50.898;4.902;2023-07-20T11:19:04;5.25;;;2.10;;
20653;SDS011;21083;50.898;4.902;2023-07-20T11:21:37;7.15;;;2.17;;
20653;SDS011;21083;50.898;4.902;2023-07-20T11:24:05;5.65;;;2.33;;
20653;SDS011;21083;50.898;4.902;2023-07-20T11:26:41;5.18;;;1.83;;
20653;SDS011;21083;50.898;4.902;2023-07-20T11:29:12;7.88;;;2.40;;
20653;SDS011;21083;50.898;4.902;2023-07-20T11:31:40;4.97;;;1.60;;
20653;SDS011;21083;50.898;4.902;2023-07-20T11:34:09;3.85;;;1.73;;
20653;SDS011;21083;50.898;4.902;2023-07-20T11:36:39;4.72;;;1.88;;
20653;SDS011;21083;50.898;4.902;2023-07-20T11:39:07;3.97;;;1.60;;
20653;SDS011;21083;50.898;4.902;2023-07-20T11:41:35;4.50;;;1.58;;
20653;SDS011;21083;50.898;4.902;2023-07-20T11:44:03;4.70;;;2.00;;
20653;SDS011;21083;50.898;4.902;2023-07-20T11:46:31;3.22;;;1.48;;
20653;SDS011;21083;50.898;4.902;2023-07-20T11:48:59;6.93;;;1.40;;
20653;SDS011;21083;50.898;4.902;2023-07-20T11:51:26;2.80;;;1.27;;
20653;SDS011;21083;50.898;4.902;2023-07-20T11:53:56;3.97;;;1.38;;
20653;SDS011;21083;50.898;4.902;2023-07-20T11:56:24;3.97;;;1.52;;
20653;SDS011;21083;50.898;4.902;2023-07-20T11:58:54;2.55;;;1.05;;
20653;SDS011;21083;50.898;4.902;2023-07-20T12:01:24;4.88;;;1.50;;
20653;SDS011;21083;50.898;4.902;2023-07-20T12:03:54;2.65;;;1.33;;
20653;SDS011;21083;50.898;4.902;2023-07-20T12:06:22;4.05;;;1.38;;
20653;SDS011;21083;50.898;4.902;2023-07-20T12:08:50;6.72;;;1.35;;
20653;SDS011;21083;50.898;4.902;2023-07-20T12:11:34;5.65;;;1.85;;
20653;SDS011;21083;50.898;4.902;2023-07-20T12:14:02;6.97;;;1.42;;
20653;SDS011;21083;50.898;4.902;2023-07-20T12:16:30;3.90;;;1.40;;
20653;SDS011;21083;50.898;4.902;2023-07-20T12:19:00;5.07;;;1.77;;
20653;SDS011;21083;50.898;4.902;2023-07-20T12:21:28;3.67;;;1.30;;
20653;SDS011;21083;50.898;4.902;2023-07-20T12:23:55;3.33;;;1.30;;
20653;SDS011;21083;50.898;4.902;2023-07-20T12:26:23;3.47;;;1.10;;
20653;SDS011;21083;50.898;4.902;2023-07-20T12:28:52;2.75;;;1.23;;
20653;SDS011;21083;50.898;4.902;2023-07-20T12:31:19;5.65;;;1.33;;
20653;SDS011;21083;50.898;4.902;2023-07-20T12:33:47;2.33;;;1.00;;
20653;SDS011;21083;50.898;4.902;2023-07-20T12:36:14;3.88;;;1.42;;
20653;SDS011;21083;50.898;4.902;2023-07-20T12:38:41;1.33;;;0.95;;
20653;SDS011;21083;50.898;4.902;2023-07-20T12:41:09;4.40;;;1.23;;
20653;SDS011;21083;50.898;4.902;2023-07-20T12:43:39;2.78;;;1.00;;
20653;SDS011;21083;50.898;4.902;2023-07-20T12:46:07;1.80;;;1.00;;
20653;SDS011;21083;50.898;4.902;2023-07-20T12:48:35;4.13;;;1.10;;
20653;SDS011;21083;50.898;4.902;2023-07-20T12:51:03;4.47;;;1.40;;
20653;SDS011;21083;50.898;4.902;2023-07-20T12:53:30;2.75;;;1.42;;
20653;SDS011;21083;50.898;4.902;2023-07-20T12:55:57;5.07;;;1.25;;
20653;SDS011;21083;50.898;4.902;2023-07-20T12:58:24;3.60;;;1.20;;
20653;SDS011;21083;50.898;4.902;2023-07-20T13:00:52;5.53;;;1.63;;
20653;SDS011;21083;50.898;4.902;2023-07-20T13:03:20;4.05;;;1.00;;
20653;SDS011;21083;50.898;4.902;2023-07-20T13:05:47;3.05;;;1.00;;
20653;SDS011;21083;50.898;4.902;2023-07-20T13:08:15;2.95;;;1.02;;
20653;SDS011;21083;50.898;4.902;2023-07-20T13:10:43;3.25;;;0.98;;
20653;SDS011;21083;50.898;4.902;2023-07-20T13:13:10;4.68;;;1.20;;
20653;SDS011;21083;50.898;4.902;2023-07-20T13:15:41;2.92;;;1.10;;
20653;SDS011;21083;50.898;4.902;2023-07-20T13:18:08;2.78;;;0.98;;
20653;SDS011;21083;50.898;4.902;2023-07-20T13:20:36;3.78;;;0.93;;
20653;SDS011;21083;50.898;4.902;2023-07-20T13:23:04;2.85;;;0.95;;
20653;SDS011;21083;50.898;4.902;2023-07-20T13:25:31;6.10;;;1.20;;
20653;SDS011;21083;50.898;4.902;2023-07-20T13:27:58;1.63;;;0.80;;
20653;SDS011;21083;50.898;4.902;2023-07-20T13:30:25;3.30;;;0.90;;
20653;SDS011;21083;50.898;4.902;2023-07-20T13:32:52;2.33;;;1.00;;
20653;SDS011;21083;50.898;4.902;2023-07-20T13:35:18;1.80;;;1.20;;
20653;SDS011;21083;50.898;4.902;2023-07-20T13:37:47;3.50;;;1.05;;
20653;SDS011;21083;50.898;4.902;2023-07-20T13:40:15;3.72;;;1.02;;
20653;SDS011;21083;50.898;4.902;2023-07-20T13:42:43;5.10;;;1.40;;
20653;SDS011;21083;50.898;4.902;2023-07-20T13:45:11;2.35;;;1.27;;
20653;SDS011;21083;50.898;4.902;2023-07-20T13:47:38;3.95;;;1.00;;
20653;SDS011;21083;50.898;4.902;2023-07-20T13:50:05;3.72;;;1.23;;
20653;SDS011;21083;50.898;4.902;2023-07-20T13:52:32;3.13;;;0.90;;
20653;SDS011;21083;50.898;4.902;2023-07-20T13:55:01;3.03;;;1.10;;
20653;SDS011;21083;50.898;4.902;2023-07-20T13:57:29;3.75;;;1.00;;
20653;SDS011;21083;50.898;4.902;2023-07-20T13:59:56;5.55;;;1.05;;
20653;SDS011;21083;50.898;4.902;2023-07-20T14:02:25;2.38;;;1.10;;
20653;SDS011;21083;50.898;4.902;2023-07-20T14:04:51;6.85;;;1.10;;
20653;SDS011;21083;50.898;4.902;2023-07-20T14:07:20;3.67;;;1.10;;
20653;SDS011;21083;50.898;4.902;2023-07-20T14:09:47;3.33;;;1.20;;
20653;SDS011;21083;50.898;4.902;2023-07-20T14:12:16;3.97;;;1.05;;
20653;SDS011;21083;50.898;4.902;2023-07-20T14:14:43;3.45;;;1.10;;
20653;SDS011;21083;50.898;4.902;2023-07-20T14:17:10;7.05;;;1.30;;
20653;SDS011;21083;50.898;4.902;2023-07-20T14:19:37;4.93;;;1.02;;
20653;SDS011;21083;50.898;4.902;2023-07-20T14:22:04;5.38;;;1.00;;
20653;SDS011;21083;50.898;4.902;2023-07-20T14:24:32;2.13;;;1.10;;
20653;SDS011;21083;50.898;4.902;2023-07-20T14:26:58;2.30;;;0.85;;
20653;SDS011;21083;50.898;4.902;2023-07-20T14:29:27;3.38;;;1.15;;
20653;SDS011;21083;50.898;4.902;2023-07-20T14:31:56;3.70;;;1.15;;
20653;SDS011;21083;50.898;4.902;2023-07-20T14:34:24;3.30;;;1.00;;
20653;SDS011;21083;50.898;4.902;2023-07-20T14:36:51;2.92;;;0.90;;
20653;SDS011;21083;50.898;4.902;2023-07-20T14:39:18;3.95;;;0.93;;
20653;SDS011;21083;50.898;4.902;2023-07-20T14:41:45;1.83;;;0.80;;
20653;SDS011;21083;50.898;4.902;2023-07-20T14:44:12;4.10;;;0.88;;
20653;SDS011;21083;50.898;4.902;2023-07-20T14:46:41;5.28;;;1.27;;
20653;SDS011;21083;50.898;4.902;2023-07-20T14:49:07;4.10;;;1.10;;